Airfield :







YOU CAN JOIN US ON...

 
LOGIN :

Register | Disclaimer

   EN    FR    IT 

 









Legend :    VFR   Marginal VFR   IFR   Intensive IFR   Very Intensive IFR
Visi :
Ceiling :
>= 8 km
>= 3000ft
5 to 8 km
1000 to 3000 ft
1500m to 5 km
500 to 1000 ft
800 to 1500m
200 to 500 ft
< 800m
< 200 ft
Symbols :   Thunderstorms  Fog  Heavy snow  Heavy precipitations  Wind > 20 kt






- Airport Elevation : 118 ft
- IATA code : YUL


CYUL - Montréal - Pierre-Elliott-Trudeau Int.

CURRENT METAR :
  • 092100Z 13010KT 10SM -RA BKN048 OVC070 05/04 A2966 RMK SC7AS1 SLP046

EXPIRED METARs :
  • 092000Z 14011KT 12SM -RA BKN055 OVC070 04/03 A2970 RMK SC6AS2 PRESFR SLP059
  • 091900Z 13005KT 15SM -RA FEW040 OVC075 05/01 A2976 RMK SC1AS7 PRESFR SLP081

TAF TAF CYUL
Valid from the 09 at 21:00 until the 10 at 18:00 UTC


092039Z 0921/1018 14012KT P6SM -RA BKN050 OVC070
TEMPO 0921/0923 BKN020 OVC050
FM092300 13007KT P6SM -RA OVC040
TEMPO 0923/1004 5SM -RA BR FEW008 OVC020
FM100400 18008KT P6SM OVC030
TEMPO 1004/1016 6SM -SHRA BR OVC020
BECMG 1011/1013 22015G25KT
FM101600 23020G32KT P6SM BKN030 RMK NXT FCST BY 100000Z
ATIS : ENG : +1 514-633-3037 FRA : +1 514-633-3034



MET'MAP, your aeronautical weather chart ! - Copyright ORBIFLY December 2007 - Disclaimer

ORBIFLY MET'MAP TEAM :

Programming & Development : Alexandra Zaïnal
Concept & original design : Baudouin d'Aumeries
Assistance for programming : Marc-Olivier Méhu
Technical & hardware support : Manuel Goepfert

Contact : metmap@orbifly.com




SOURCES & CREDITS :

   NOAA